Terminal Aerodrome Forecast
Issued by NWS

Home | Current Version | Previous Version | Text Only | Print | Product List | Glossary On
Versions: 1 2 3 4 5 6 7 8 9 10 11 12 13 14
000
FTUS43 KGRR 291100
TAFJXN
TAF
KJXN 291140Z 2912/3012 16011KT P6SM OVC050
     FM291500 17007G14KT P6SM OVC060
     FM291700 25008G15KT P6SM -RA OVC040
     FM291900 30010G18KT 6SM -RA OVC020
     FM300000 31015G25KT 4SM -SN OVC010=

USA.gov is the U.S. government's official web portal to all federal, state and local government web resources and services.